sensor_id;sensor_type;location;lat;lon;timestamp;pressure;altitude;pressure_sealevel;temperature;humidity
19748;BME280;10032;51.386;12.516;2022-10-31T00:01:53;100570.69;;;11.51;100.00
19748;BME280;10032;51.386;12.516;2022-10-31T00:04:18;100575.03;;;11.52;100.00
19748;BME280;10032;51.386;12.516;2022-10-31T00:06:44;100582.06;;;11.48;100.00
19748;BME280;10032;51.386;12.516;2022-10-31T00:09:10;100580.78;;;11.39;100.00
19748;BME280;10032;51.386;12.516;2022-10-31T00:11:36;100580.28;;;11.42;100.00
19748;BME280;10032;51.386;12.516;2022-10-31T00:14:01;100578.66;;;11.41;100.00
19748;BME280;10032;51.386;12.516;2022-10-31T00:16:27;100583.25;;;11.41;100.00
19748;BME280;10032;51.386;12.516;2022-10-31T00:18:56;100587.84;;;11.40;100.00
19748;BME280;10032;51.386;12.516;2022-10-31T00:21:22;100590.00;;;11.38;100.00
19748;BME280;10032;51.386;12.516;2022-10-31T00:23:48;100587.03;;;11.40;100.00
19748;BME280;10032;51.386;12.516;2022-10-31T00:26:14;100586.69;;;11.36;100.00
19748;BME280;10032;51.386;12.516;2022-10-31T00:28:40;100584.25;;;11.35;100.00
19748;BME280;10032;51.386;12.516;2022-10-31T00:31:07;100583.41;;;11.34;100.00
19748;BME280;10032;51.386;12.516;2022-10-31T00:33:34;100592.03;;;11.31;100.00
19748;BME280;10032;51.386;12.516;2022-10-31T00:35:59;100596.41;;;11.32;100.00
19748;BME280;10032;51.386;12.516;2022-10-31T00:38:25;100593.09;;;11.30;100.00
19748;BME280;10032;51.386;12.516;2022-10-31T00:40:51;100595.72;;;11.25;100.00
19748;BME280;10032;51.386;12.516;2022-10-31T00:43:16;100600.34;;;11.25;100.00
19748;BME280;10032;51.386;12.516;2022-10-31T00:45:42;100604.34;;;11.22;100.00
19748;BME280;10032;51.386;12.516;2022-10-31T00:48:08;100592.91;;;11.20;100.00
19748;BME280;10032;51.386;12.516;2022-10-31T00:50:33;100597.53;;;11.20;100.00
19748;BME280;10032;51.386;12.516;2022-10-31T00:52:59;100600.13;;;11.15;100.00
19748;BME280;10032;51.386;12.516;2022-10-31T00:55:24;100596.03;;;11.12;100.00
19748;BME280;10032;51.386;12.516;2022-10-31T00:57:50;100595.19;;;11.12;100.00
19748;BME280;10032;51.386;12.516;2022-10-31T01:00:15;100607.84;;;11.06;100.00
19748;BME280;10032;51.386;12.516;2022-10-31T01:02:41;100611.59;;;11.05;100.00
19748;BME280;10032;51.386;12.516;2022-10-31T01:05:06;100606.91;;;11.01;100.00
19748;BME280;10032;51.386;12.516;2022-10-31T01:07:35;100612.22;;;10.96;100.00
19748;BME280;10032;51.386;12.516;2022-10-31T01:10:00;100616.22;;;10.93;100.00
19748;BME280;10032;51.386;12.516;2022-10-31T01:12:26;100604.31;;;10.94;100.00
19748;BME280;10032;51.386;12.516;2022-10-31T01:14:51;100615.16;;;10.94;100.00
19748;BME280;10032;51.386;12.516;2022-10-31T01:17:16;100609.63;;;10.89;100.00
19748;BME280;10032;51.386;12.516;2022-10-31T01:19:42;100613.41;;;10.88;100.00
19748;BME280;10032;51.386;12.516;2022-10-31T01:22:07;100608.00;;;10.88;100.00
19748;BME280;10032;51.386;12.516;2022-10-31T01:24:32;100608.50;;;10.85;100.00
19748;BME280;10032;51.386;12.516;2022-10-31T01:26:58;100611.22;;;10.85;100.00
19748;BME280;10032;51.386;12.516;2022-10-31T01:29:23;100610.03;;;10.81;100.00
19748;BME280;10032;51.386;12.516;2022-10-31T01:31:48;100608.38;;;10.80;100.00
19748;BME280;10032;51.386;12.516;2022-10-31T01:34:15;100608.84;;;10.77;100.00
19748;BME280;10032;51.386;12.516;2022-10-31T01:36:42;100610.75;;;10.77;100.00
19748;BME280;10032;51.386;12.516;2022-10-31T01:39:13;100608.28;;;10.75;100.00
19748;BME280;10032;51.386;12.516;2022-10-31T01:41:42;100614.16;;;10.72;100.00
19748;BME280;10032;51.386;12.516;2022-10-31T01:49:21;100613.59;;;10.70;100.00
19748;BME280;10032;51.386;12.516;2022-10-31T01:51:52;100611.34;;;10.67;100.00
19748;BME280;10032;51.386;12.516;2022-10-31T01:54:23;100609.13;;;10.64;100.00
19748;BME280;10032;51.386;12.516;2022-10-31T01:56:54;100618.06;;;10.65;100.00
19748;BME280;10032;51.386;12.516;2022-10-31T01:59:21;100617.25;;;10.64;100.00
19748;BME280;10032;51.386;12.516;2022-10-31T02:01:50;100611.72;;;10.59;100.00
19748;BME280;10032;51.386;12.516;2022-10-31T02:04:18;100614.66;;;10.58;100.00
19748;BME280;10032;51.386;12.516;2022-10-31T02:06:57;100618.44;;;10.57;100.00
19748;BME280;10032;51.386;12.516;2022-10-31T02:09:25;100613.16;;;10.50;100.00
19748;BME280;10032;51.386;12.516;2022-10-31T02:11:56;100621.03;;;10.52;100.00
19748;BME280;10032;51.386;12.516;2022-10-31T02:14:24;100620.44;;;10.50;100.00
19748;BME280;10032;51.386;12.516;2022-10-31T02:16:50;100619.88;;;10.48;100.00
19748;BME280;10032;51.386;12.516;2022-10-31T02:19:25;100614.91;;;10.45;100.00
19748;BME280;10032;51.386;12.516;2022-10-31T02:24:40;100614.91;;;10.45;100.00
19748;BME280;10032;51.386;12.516;2022-10-31T02:32:46;100626.69;;;10.39;100.00
19748;BME280;10032;51.386;12.516;2022-10-31T02:40:57;100628.00;;;10.36;100.00
19748;BME280;10032;51.386;12.516;2022-10-31T02:48:27;100634.34;;;10.30;100.00
19748;BME280;10032;51.386;12.516;2022-10-31T02:50:57;100633.78;;;10.28;100.00
19748;BME280;10032;51.386;12.516;2022-10-31T02:53:24;100632.38;;;10.26;100.00
19748;BME280;10032;51.386;12.516;2022-10-31T02:56:05;100638.59;;;10.26;100.00
19748;BME280;10032;51.386;12.516;2022-10-31T02:58:38;100642.38;;;10.25;100.00
19748;BME280;10032;51.386;12.516;2022-10-31T03:07:15;100651.19;;;10.21;100.00
19748;BME280;10032;51.386;12.516;2022-10-31T03:12:29;100650.25;;;10.15;100.00
19748;BME280;10032;51.386;12.516;2022-10-31T03:18:01;100658.25;;;10.10;100.00
19748;BME280;10032;51.386;12.516;2022-10-31T03:20:34;100655.19;;;10.07;100.00
19748;BME280;10032;51.386;12.516;2022-10-31T03:23:03;100658.94;;;10.06;100.00
19748;BME280;10032;51.386;12.516;2022-10-31T03:25:31;100657.66;;;10.08;100.00
19748;BME280;10032;51.386;12.516;2022-10-31T03:27:58;100659.41;;;10.03;100.00
19748;BME280;10032;51.386;12.516;2022-10-31T03:30:24;100654.00;;;10.03;100.00
19748;BME280;10032;51.386;12.516;2022-10-31T03:32:54;100661.06;;;10.04;100.00
19748;BME280;10032;51.386;12.516;2022-10-31T03:35:23;100666.69;;;10.02;100.00
19748;BME280;10032;51.386;12.516;2022-10-31T03:37:49;100663.28;;;9.95;100.00
19748;BME280;10032;51.386;12.516;2022-10-31T03:40:16;100665.16;;;9.95;100.00
19748;BME280;10032;51.386;12.516;2022-10-31T03:42:49;100662.09;;;9.91;100.00
19748;BME280;10032;51.386;12.516;2022-10-31T03:45:23;100671.00;;;9.92;100.00
19748;BME280;10032;51.386;12.516;2022-10-31T03:47:50;100669.72;;;9.94;100.00
19748;BME280;10032;51.386;12.516;2022-10-31T03:50:16;100676.19;;;9.93;100.00
19748;BME280;10032;51.386;12.516;2022-10-31T03:53:04;100681.03;;;9.91;100.00
19748;BME280;10032;51.386;12.516;2022-10-31T03:55:41;100672.28;;;9.89;100.00
19748;BME280;10032;51.386;12.516;2022-10-31T03:58:27;100680.41;;;9.89;100.00
19748;BME280;10032;51.386;12.516;2022-10-31T04:00:55;100671.25;;;9.90;100.00
19748;BME280;10032;51.386;12.516;2022-10-31T04:03:28;100671.72;;;9.87;100.00
19748;BME280;10032;51.386;12.516;2022-10-31T04:05:59;100679.25;;;9.85;100.00
19748;BME280;10032;51.386;12.516;2022-10-31T04:08:29;100672.78;;;9.86;100.00
19748;BME280;10032;51.386;12.516;2022-10-31T04:10:57;100682.41;;;9.82;100.00
19748;BME280;10032;51.386;12.516;2022-10-31T04:13:28;100679.13;;;9.80;100.00
19748;BME280;10032;51.386;12.516;2022-10-31T04:15:56;100673.72;;;9.80;100.00
19748;BME280;10032;51.386;12.516;2022-10-31T04:18:25;100666.03;;;9.77;100.00
19748;BME280;10032;51.386;12.516;2022-10-31T04:21:00;100674.38;;;9.76;100.00
19748;BME280;10032;51.386;12.516;2022-10-31T04:23:27;100684.41;;;9.75;100.00
19748;BME280;10032;51.386;12.516;2022-10-31T04:25:53;100678.38;;;9.73;100.00
19748;BME280;10032;51.386;12.516;2022-10-31T04:28:18;100681.09;;;9.73;100.00
19748;BME280;10032;51.386;12.516;2022-10-31T04:30:44;100682.63;;;9.69;100.00
19748;BME280;10032;51.386;12.516;2022-10-31T04:33:09;100680.38;;;9.66;100.00
19748;BME280;10032;51.386;12.516;2022-10-31T04:35:35;100691.66;;;9.63;100.00
19748;BME280;10032;51.386;12.516;2022-10-31T04:38:00;100688.97;;;9.63;100.00
19748;BME280;10032;51.386;12.516;2022-10-31T04:40:25;100690.00;;;9.62;100.00
19748;BME280;10032;51.386;12.516;2022-10-31T04:42:51;100691.28;;;9.60;100.00
19748;BME280;10032;51.386;12.516;2022-10-31T04:45:16;100693.41;;;9.58;100.00
19748;BME280;10032;51.386;12.516;2022-10-31T04:47:41;100690.09;;;9.56;100.00
19748;BME280;10032;51.386;12.516;2022-10-31T04:50:07;100700.53;;;9.52;100.00
19748;BME280;10032;51.386;12.516;2022-10-31T04:52:39;100700.53;;;9.52;100.00
19748;BME280;10032;51.386;12.516;2022-10-31T04:55:05;100702.44;;;9.52;100.00
19748;BME280;10032;51.386;12.516;2022-10-31T04:57:30;100708.91;;;9.51;100.00
19748;BME280;10032;51.386;12.516;2022-10-31T04:59:55;100706.63;;;9.48;100.00
19748;BME280;10032;51.386;12.516;2022-10-31T05:02:21;100701.44;;;9.46;100.00
19748;BME280;10032;51.386;12.516;2022-10-31T05:04:46;100709.56;;;9.46;100.00
19748;BME280;10032;51.386;12.516;2022-10-31T05:07:11;100706.88;;;9.46;100.00
19748;BME280;10032;51.386;12.516;2022-10-31T05:09:37;100709.56;;;9.46;100.00
19748;BME280;10032;51.386;12.516;2022-10-31T05:12:03;100715.66;;;9.42;100.00
19748;BME280;10032;51.386;12.516;2022-10-31T05:14:28;100702.38;;;9.40;100.00
19748;BME280;10032;51.386;12.516;2022-10-31T05:16:54;100710.47;;;9.40;100.00
19748;BME280;10032;51.386;12.516;2022-10-31T05:19:19;100710.13;;;9.37;100.00
19748;BME280;10032;51.386;12.516;2022-10-31T05:21:44;100700.38;;;9.36;100.00
19748;BME280;10032;51.386;12.516;2022-10-31T05:24:10;100704.34;;;9.33;100.00
19748;BME280;10032;51.386;12.516;2022-10-31T05:26:35;100706.44;;;9.31;100.00
19748;BME280;10032;51.386;12.516;2022-10-31T05:29:00;100707.50;;;9.30;100.00
19748;BME280;10032;51.386;12.516;2022-10-31T05:31:26;100701.50;;;9.28;100.00
19748;BME280;10032;51.386;12.516;2022-10-31T05:33:51;100703.00;;;9.24;100.00
19748;BME280;10032;51.386;12.516;2022-10-31T05:36:16;100699.72;;;9.22;100.00
19748;BME280;10032;51.386;12.516;2022-10-31T05:38:41;100702.63;;;9.21;100.00
19748;BME280;10032;51.386;12.516;2022-10-31T05:41:07;100708.25;;;9.19;100.00
19748;BME280;10032;51.386;12.516;2022-10-31T05:43:32;100702.25;;;9.17;100.00
19748;BME280;10032;51.386;12.516;2022-10-31T05:45:57;100709.31;;;9.18;100.00
19748;BME280;10032;51.386;12.516;2022-10-31T05:48:23;100706.03;;;9.16;100.00
19748;BME280;10032;51.386;12.516;2022-10-31T05:50:49;100715.84;;;9.11;100.00
19748;BME280;10032;51.386;12.516;2022-10-31T05:53:15;100706.91;;;9.10;100.00
19748;BME280;10032;51.386;12.516;2022-10-31T05:55:42;100716.91;;;9.10;100.00
19748;BME280;10032;51.386;12.516;2022-10-31T05:58:08;100720.88;;;9.07;100.00
19748;BME280;10032;51.386;12.516;2022-10-31T06:00:33;100712.78;;;9.07;100.00
19748;BME280;10032;51.386;12.516;2022-10-31T06:03:05;100717.13;;;9.08;100.00
19748;BME280;10032;51.386;12.516;2022-10-31T06:05:32;100712.78;;;9.07;100.00
19748;BME280;10032;51.386;12.516;2022-10-31T06:07:58;100708.88;;;9.03;100.00
19748;BME280;10032;51.386;12.516;2022-10-31T06:10:23;100713.22;;;9.04;100.00
19748;BME280;10032;51.386;12.516;2022-10-31T06:12:49;100722.75;;;9.07;100.00
19748;BME280;10032;51.386;12.516;2022-10-31T06:15:15;100718.19;;;9.07;100.00
19748;BME280;10032;51.386;12.516;2022-10-31T06:17:41;100714.66;;;9.07;100.00
19748;BME280;10032;51.386;12.516;2022-10-31T06:20:07;100728.41;;;9.05;100.00
19748;BME280;10032;51.386;12.516;2022-10-31T06:22:33;100734.41;;;9.07;100.00
19748;BME280;10032;51.386;12.516;2022-10-31T06:24:58;100726.06;;;9.09;100.00
19748;BME280;10032;51.386;12.516;2022-10-31T06:27:24;100733.13;;;9.10;100.00
19748;BME280;10032;51.386;12.516;2022-10-31T06:29:50;100739.34;;;9.10;100.00
19748;BME280;10032;51.386;12.516;2022-10-31T06:32:15;100737.09;;;9.07;100.00
19748;BME280;10032;51.386;12.516;2022-10-31T06:34:41;100740.19;;;9.11;100.00
19748;BME280;10032;51.386;12.516;2022-10-31T06:37:08;100745.94;;;9.14;100.00
19748;BME280;10032;51.386;12.516;2022-10-31T06:39:33;100753.63;;;9.17;100.00
19748;BME280;10032;51.386;12.516;2022-10-31T06:41:59;100757.06;;;9.24;100.00
19748;BME280;10032;51.386;12.516;2022-10-31T06:44:24;100756.16;;;9.30;100.00
19748;BME280;10032;51.386;12.516;2022-10-31T06:46:50;100753.59;;;9.35;100.00
19748;BME280;10032;51.386;12.516;2022-10-31T06:49:15;100754.81;;;9.39;100.00
19748;BME280;10032;51.386;12.516;2022-10-31T06:51:40;100748.72;;;9.44;100.00
19748;BME280;10032;51.386;12.516;2022-10-31T06:54:06;100743.81;;;9.52;100.00
19748;BME280;10032;51.386;12.516;2022-10-31T06:56:31;100759.75;;;9.60;100.00
19748;BME280;10032;51.386;12.516;2022-10-31T06:58:56;100753.88;;;9.63;100.00
19748;BME280;10032;51.386;12.516;2022-10-31T07:01:22;100757.75;;;9.67;100.00
19748;BME280;10032;51.386;12.516;2022-10-31T07:03:47;100754.13;;;9.73;100.00
19748;BME280;10032;51.386;12.516;2022-10-31T07:06:13;100756.75;;;9.80;100.00
19748;BME280;10032;51.386;12.516;2022-10-31T07:08:38;100756.66;;;9.86;100.00
19748;BME280;10032;51.386;12.516;2022-10-31T07:11:03;100764.00;;;9.97;100.00
19748;BME280;10032;51.386;12.516;2022-10-31T07:13:29;100759.94;;;10.06;100.00
19748;BME280;10032;51.386;12.516;2022-10-31T07:15:58;100759.16;;;10.17;100.00
19748;BME280;10032;51.386;12.516;2022-10-31T07:18:24;100769.75;;;10.30;100.00
19748;BME280;10032;51.386;12.516;2022-10-31T07:20:51;100776.72;;;10.38;100.00
19748;BME280;10032;51.386;12.516;2022-10-31T07:23:17;100774.06;;;10.49;100.00
19748;BME280;10032;51.386;12.516;2022-10-31T07:25:42;100773.81;;;10.62;100.00
19748;BME280;10032;51.386;12.516;2022-10-31T07:28:08;100775.81;;;10.78;100.00
19748;BME280;10032;51.386;12.516;2022-10-31T07:30:34;100778.31;;;10.91;100.00
19748;BME280;10032;51.386;12.516;2022-10-31T07:32:59;100775.84;;;11.01;100.00
19748;BME280;10032;51.386;12.516;2022-10-31T07:35:26;100789.13;;;11.14;100.00
19748;BME280;10032;51.386;12.516;2022-10-31T07:37:52;100779.69;;;11.28;100.00
19748;BME280;10032;51.386;12.516;2022-10-31T07:40:18;100782.34;;;11.40;100.00
19748;BME280;10032;51.386;12.516;2022-10-31T07:42:46;100781.66;;;11.56;100.00
19748;BME280;10032;51.386;12.516;2022-10-31T07:45:15;100780.72;;;11.62;100.00
19748;BME280;10032;51.386;12.516;2022-10-31T07:47:42;100776.78;;;11.69;100.00
19748;BME280;10032;51.386;12.516;2022-10-31T07:50:10;100778.63;;;11.80;100.00
19748;BME280;10032;51.386;12.516;2022-10-31T07:52:36;100782.69;;;11.94;100.00
19748;BME280;10032;51.386;12.516;2022-10-31T07:55:03;100783.47;;;12.06;100.00
19748;BME280;10032;51.386;12.516;2022-10-31T07:57:28;100776.41;;;12.22;100.00
19748;BME280;10032;51.386;12.516;2022-10-31T07:59:54;100774.44;;;12.34;100.00
19748;BME280;10032;51.386;12.516;2022-10-31T08:02:20;100776.44;;;12.38;100.00
19748;BME280;10032;51.386;12.516;2022-10-31T08:04:45;100777.56;;;12.42;100.00
19748;BME280;10032;51.386;12.516;2022-10-31T08:07:10;100776.13;;;12.51;100.00
19748;BME280;10032;51.386;12.516;2022-10-31T08:09:36;100778.75;;;12.63;100.00
19748;BME280;10032;51.386;12.516;2022-10-31T08:12:01;100779.25;;;12.76;100.00
19748;BME280;10032;51.386;12.516;2022-10-31T08:14:27;100777.56;;;12.92;100.00
19748;BME280;10032;51.386;12.516;2022-10-31T08:16:53;100780.72;;;13.00;100.00
19748;BME280;10032;51.386;12.516;2022-10-31T08:19:18;100774.09;;;13.13;100.00
19748;BME280;10032;51.386;12.516;2022-10-31T08:21:44;100774.00;;;13.24;100.00
19748;BME280;10032;51.386;12.516;2022-10-31T08:24:09;100770.91;;;13.37;100.00
19748;BME280;10032;51.386;12.516;2022-10-31T08:26:34;100768.06;;;13.49;100.00
19748;BME280;10032;51.386;12.516;2022-10-31T08:29:00;100768.69;;;13.56;100.00
19748;BME280;10032;51.386;12.516;2022-10-31T08:31:27;100766.66;;;13.68;100.00
19748;BME280;10032;51.386;12.516;2022-10-31T08:33:55;100769.22;;;13.79;100.00
19748;BME280;10032;51.386;12.516;2022-10-31T08:36:20;100766.88;;;13.88;100.00
19748;BME280;10032;51.386;12.516;2022-10-31T08:38:46;100770.00;;;13.96;100.00
19748;BME280;10032;51.386;12.516;2022-10-31T08:41:12;100782.63;;;14.07;100.00
19748;BME280;10032;51.386;12.516;2022-10-31T08:43:38;100771.34;;;14.20;100.00
19748;BME280;10032;51.386;12.516;2022-10-31T08:46:03;100767.63;;;14.31;100.00
19748;BME280;10032;51.386;12.516;2022-10-31T08:48:29;100774.81;;;14.42;100.00
19748;BME280;10032;51.386;12.516;2022-10-31T08:50:56;100765.13;;;14.56;100.00
19748;BME280;10032;51.386;12.516;2022-10-31T08:53:23;100763.63;;;14.70;100.00
19748;BME280;10032;51.386;12.516;2022-10-31T08:55:48;100759.09;;;14.86;100.00
19748;BME280;10032;51.386;12.516;2022-10-31T08:58:18;100761.63;;;14.97;100.00
19748;BME280;10032;51.386;12.516;2022-10-31T09:00:46;100761.72;;;15.12;100.00
19748;BME280;10032;51.386;12.516;2022-10-31T09:03:15;100760.13;;;15.26;100.00
19748;BME280;10032;51.386;12.516;2022-10-31T09:05:41;100765.19;;;15.44;100.00
19748;BME280;10032;51.386;12.516;2022-10-31T09:08:07;100761.97;;;15.57;100.00
19748;BME280;10032;51.386;12.516;2022-10-31T09:10:34;100763.34;;;15.65;100.00
19748;BME280;10032;51.386;12.516;2022-10-31T09:13:01;100755.44;;;15.68;100.00
19748;BME280;10032;51.386;12.516;2022-10-31T09:15:30;100763.66;;;15.73;100.00
19748;BME280;10032;51.386;12.516;2022-10-31T09:17:55;100759.88;;;15.84;100.00
19748;BME280;10032;51.386;12.516;2022-10-31T09:20:21;100764.84;;;15.97;100.00
19748;BME280;10032;51.386;12.516;2022-10-31T09:22:46;100754.72;;;16.08;100.00
19748;BME280;10032;51.386;12.516;2022-10-31T09:25:12;100756.38;;;16.14;100.00
19748;BME280;10032;51.386;12.516;2022-10-31T09:27:37;100755.59;;;16.23;100.00
19748;BME280;10032;51.386;12.516;2022-10-31T09:30:03;100752.84;;;16.38;100.00
19748;BME280;10032;51.386;12.516;2022-10-31T09:32:29;100750.41;;;16.57;100.00
19748;BME280;10032;51.386;12.516;2022-10-31T09:34:54;100752.88;;;16.68;100.00
19748;BME280;10032;51.386;12.516;2022-10-31T09:37:20;100747.66;;;16.82;100.00
19748;BME280;10032;51.386;12.516;2022-10-31T09:39:45;100741.34;;;16.91;100.00
19748;BME280;10032;51.386;12.516;2022-10-31T09:42:26;100747.38;;;16.98;100.00
19748;BME280;10032;51.386;12.516;2022-10-31T09:48:03;100746.47;;;17.28;100.00
19748;BME280;10032;51.386;12.516;2022-10-31T09:50:42;100741.81;;;17.38;100.00
19748;BME280;10032;51.386;12.516;2022-10-31T09:53:27;100733.84;;;17.37;100.00
19748;BME280;10032;51.386;12.516;2022-10-31T09:55:56;100739.06;;;17.33;100.00
19748;BME280;10032;51.386;12.516;2022-10-31T09:58:27;100742.38;;;17.25;100.00
19748;BME280;10032;51.386;12.516;2022-10-31T10:00:58;100738.81;;;17.20;100.00
19748;BME280;10032;51.386;12.516;2022-10-31T10:03:35;100745.13;;;17.20;100.00
19748;BME280;10032;51.386;12.516;2022-10-31T10:06:40;100743.47;;;17.34;100.00
19748;BME280;10032;51.386;12.516;2022-10-31T10:09:09;100741.81;;;17.38;100.00
19748;BME280;10032;51.386;12.516;2022-10-31T10:19:50;100742.41;;;17.84;100.00
19748;BME280;10032;51.386;12.516;2022-10-31T10:22:54;100737.97;;;17.93;100.00
19748;BME280;10032;51.386;12.516;2022-10-31T10:25:28;100742.09;;;17.95;100.00
19748;BME280;10032;51.386;12.516;2022-10-31T10:28:29;100744.00;;;18.00;100.00
19748;BME280;10032;51.386;12.516;2022-10-31T10:31:13;100742.03;;;18.05;100.00
19748;BME280;10032;51.386;12.516;2022-10-31T10:39:41;100736.41;;;18.25;100.00
19748;BME280;10032;51.386;12.516;2022-10-31T10:42:13;100727.25;;;18.40;100.00
19748;BME280;10032;51.386;12.516;2022-10-31T10:44:57;100727.69;;;18.52;100.00
19748;BME280;10032;51.386;12.516;2022-10-31T10:47:43;100721.38;;;18.56;100.00
19748;BME280;10032;51.386;12.516;2022-10-31T10:50:32;100726.25;;;18.59;100.00
19748;BME280;10032;51.386;12.516;2022-10-31T10:56:22;100716.13;;;18.88;100.00
19748;BME280;10032;51.386;12.516;2022-10-31T10:58:54;100724.03;;;18.95;100.00
19748;BME280;10032;51.386;12.516;2022-10-31T11:01:21;100716.59;;;18.95;100.00
19748;BME280;10032;51.386;12.516;2022-10-31T11:03:47;100714.06;;;18.99;100.00
19748;BME280;10032;51.386;12.516;2022-10-31T11:06:18;100712.84;;;19.10;100.00
19748;BME280;10032;51.386;12.516;2022-10-31T11:08:48;100707.00;;;19.16;100.00
19748;BME280;10032;51.386;12.516;2022-10-31T11:13:44;100702.88;;;19.19;100.00
19748;BME280;10032;51.386;12.516;2022-10-31T11:16:14;100707.91;;;19.12;100.00
19748;BME280;10032;51.386;12.516;2022-10-31T11:18:42;100694.59;;;19.24;100.00
19748;BME280;10032;51.386;12.516;2022-10-31T11:21:21;100694.69;;;19.37;100.00
19748;BME280;10032;51.386;12.516;2022-10-31T11:23:48;100696.81;;;19.45;100.00
19748;BME280;10032;51.386;12.516;2022-10-31T11:26:20;100690.34;;;19.55;100.00
19748;BME280;10032;51.386;12.516;2022-10-31T11:28:59;100695.97;;;19.45;100.00
19748;BME280;10032;51.386;12.516;2022-10-31T11:31:25;100691.59;;;19.44;100.00
19748;BME280;10032;51.386;12.516;2022-10-31T11:34:00;100687.09;;;19.53;100.00
19748;BME280;10032;51.386;12.516;2022-10-31T11:36:30;100687.31;;;19.56;100.00
19748;BME280;10032;51.386;12.516;2022-10-31T11:38:59;100685.97;;;19.54;100.00
19748;BME280;10032;51.386;12.516;2022-10-31T11:41:31;100682.41;;;19.53;100.00
19748;BME280;10032;51.386;12.516;2022-10-31T11:46:51;100679.72;;;19.48;100.00
19748;BME280;10032;51.386;12.516;2022-10-31T11:52:05;100682.09;;;19.55;100.00
19748;BME280;10032;51.386;12.516;2022-10-31T11:57:55;100669.63;;;19.62;100.00
19748;BME280;10032;51.386;12.516;2022-10-31T12:00:27;100678.88;;;19.71;100.00
19748;BME280;10032;51.386;12.516;2022-10-31T12:05:49;100670.16;;;19.83;100.00
19748;BME280;10032;51.386;12.516;2022-10-31T12:08:17;100671.41;;;19.90;100.00
19748;BME280;10032;51.386;12.516;2022-10-31T12:16:09;100670.81;;;19.93;100.00
19748;BME280;10032;51.386;12.516;2022-10-31T12:32:50;100644.13;;;19.94;100.00
19748;BME280;10032;51.386;12.516;2022-10-31T12:35:41;100639.44;;;19.94;100.00
19748;BME280;10032;51.386;12.516;2022-10-31T12:43:43;100623.94;;;19.85;100.00
19748;BME280;10032;51.386;12.516;2022-10-31T12:49:11;100626.88;;;19.88;100.00
19748;BME280;10032;51.386;12.516;2022-10-31T12:54:33;100614.06;;;19.97;100.00
19748;BME280;10032;51.386;12.516;2022-10-31T12:59:53;100613.94;;;20.07;100.00
19748;BME280;10032;51.386;12.516;2022-10-31T13:02:31;100610.59;;;20.10;100.00
19748;BME280;10032;51.386;12.516;2022-10-31T13:05:14;100614.91;;;20.16;100.00
19748;BME280;10032;51.386;12.516;2022-10-31T13:07:45;100603.28;;;20.19;100.00
19748;BME280;10032;51.386;12.516;2022-10-31T13:12:38;100603.28;;;20.19;100.00
19748;BME280;10032;51.386;12.516;2022-10-31T13:15:26;100600.63;;;20.14;100.00
19748;BME280;10032;51.386;12.516;2022-10-31T13:17:57;100604.03;;;20.06;100.00
19748;BME280;10032;51.386;12.516;2022-10-31T13:20:28;100596.97;;;20.00;100.00
19748;BME280;10032;51.386;12.516;2022-10-31T13:23:14;100597.06;;;19.95;100.00
19748;BME280;10032;51.386;12.516;2022-10-31T13:25:46;100595.59;;;19.84;100.00
19748;BME280;10032;51.386;12.516;2022-10-31T13:31:29;100594.41;;;19.72;100.00
19748;BME280;10032;51.386;12.516;2022-10-31T13:34:03;100586.66;;;19.74;100.00
19748;BME280;10032;51.386;12.516;2022-10-31T13:36:52;100592.50;;;19.72;100.00
19748;BME280;10032;51.386;12.516;2022-10-31T13:42:04;100581.50;;;19.54;100.00
19748;BME280;10032;51.386;12.516;2022-10-31T13:44:36;100595.03;;;19.50;100.00
19748;BME280;10032;51.386;12.516;2022-10-31T13:47:27;100586.25;;;19.48;100.00
19748;BME280;10032;51.386;12.516;2022-10-31T13:50:05;100580.75;;;19.48;100.00
19748;BME280;10032;51.386;12.516;2022-10-31T13:52:30;100573.63;;;19.47;100.00
19748;BME280;10032;51.386;12.516;2022-10-31T13:54:56;100568.72;;;19.44;100.00
19748;BME280;10032;51.386;12.516;2022-10-31T13:57:32;100575.94;;;19.40;100.00
19748;BME280;10032;51.386;12.516;2022-10-31T14:00:25;100569.03;;;19.43;100.00
19748;BME280;10032;51.386;12.516;2022-10-31T14:02:53;100558.03;;;19.43;100.00
19748;BME280;10032;51.386;12.516;2022-10-31T14:07:48;100557.22;;;19.42;100.00
19748;BME280;10032;51.386;12.516;2022-10-31T14:10:28;100558.31;;;19.41;100.00
19748;BME280;10032;51.386;12.516;2022-10-31T14:13:25;100553.34;;;19.43;100.00
19748;BME280;10032;51.386;12.516;2022-10-31T14:16:21;100543.97;;;19.44;100.00
19748;BME280;10032;51.386;12.516;2022-10-31T14:18:56;100546.22;;;19.42;100.00
19748;BME280;10032;51.386;12.516;2022-10-31T14:23:48;100542.41;;;19.38;100.00
19748;BME280;10032;51.386;12.516;2022-10-31T14:26:33;100547.69;;;19.35;100.00
19748;BME280;10032;51.386;12.516;2022-10-31T14:32:00;100542.56;;;19.28;100.00
19748;BME280;10032;51.386;12.516;2022-10-31T14:34:34;100548.66;;;19.25;100.00
19748;BME280;10032;51.386;12.516;2022-10-31T14:37:30;100536.63;;;19.21;100.00
19748;BME280;10032;51.386;12.516;2022-10-31T14:50:49;100518.75;;;19.00;100.00
19748;BME280;10032;51.386;12.516;2022-10-31T14:55:48;100532.13;;;18.88;100.00
19748;BME280;10032;51.386;12.516;2022-10-31T14:58:35;100517.63;;;18.83;100.00